sensor_id;sensor_type;location;lat;lon;timestamp;P1;durP1;ratioP1;P2;durP2;ratioP2
39896;SDS011;25567;48.276;14.242;2024-02-16T00:01:48;18.10;;;7.10;;
39896;SDS011;25567;48.276;14.242;2024-02-16T00:04:15;19.08;;;8.60;;
39896;SDS011;25567;48.276;14.242;2024-02-16T00:06:41;17.48;;;8.23;;
39896;SDS011;25567;48.276;14.242;2024-02-16T00:09:08;29.10;;;10.65;;
39896;SDS011;25567;48.276;14.242;2024-02-16T00:11:36;22.52;;;9.88;;
39896;SDS011;25567;48.276;14.242;2024-02-16T00:14:03;22.88;;;11.00;;
39896;SDS011;25567;48.276;14.242;2024-02-16T00:16:30;24.75;;;11.82;;
39896;SDS011;25567;48.276;14.242;2024-02-16T00:18:57;24.70;;;12.18;;
39896;SDS011;25567;48.276;14.242;2024-02-16T00:21:24;25.95;;;13.07;;
39896;SDS011;25567;48.276;14.242;2024-02-16T00:23:51;30.33;;;12.82;;
39896;SDS011;25567;48.276;14.242;2024-02-16T00:26:17;31.52;;;12.90;;
39896;SDS011;25567;48.276;14.242;2024-02-16T00:28:44;25.45;;;12.50;;
39896;SDS011;25567;48.276;14.242;2024-02-16T00:31:11;30.05;;;13.07;;
39896;SDS011;25567;48.276;14.242;2024-02-16T00:33:38;32.80;;;11.98;;
39896;SDS011;25567;48.276;14.242;2024-02-16T00:36:04;29.23;;;12.65;;
39896;SDS011;25567;48.276;14.242;2024-02-16T00:38:31;31.27;;;12.32;;
39896;SDS011;25567;48.276;14.242;2024-02-16T00:40:58;29.60;;;11.00;;
39896;SDS011;25567;48.276;14.242;2024-02-16T00:43:25;27.17;;;12.00;;
39896;SDS011;25567;48.276;14.242;2024-02-16T00:45:51;27.65;;;11.50;;
39896;SDS011;25567;48.276;14.242;2024-02-16T00:48:18;30.05;;;12.15;;
39896;SDS011;25567;48.276;14.242;2024-02-16T00:50:45;27.05;;;12.13;;
39896;SDS011;25567;48.276;14.242;2024-02-16T00:53:11;31.15;;;12.02;;
39896;SDS011;25567;48.276;14.242;2024-02-16T00:55:38;24.90;;;11.43;;
39896;SDS011;25567;48.276;14.242;2024-02-16T00:58:08;24.42;;;11.82;;
39896;SDS011;25567;48.276;14.242;2024-02-16T01:00:34;23.25;;;11.35;;
39896;SDS011;25567;48.276;14.242;2024-02-16T01:03:02;24.48;;;11.32;;
39896;SDS011;25567;48.276;14.242;2024-02-16T01:05:29;34.03;;;11.20;;
39896;SDS011;25567;48.276;14.242;2024-02-16T01:07:56;22.65;;;10.25;;
39896;SDS011;25567;48.276;14.242;2024-02-16T01:10:22;25.92;;;10.70;;
39896;SDS011;25567;48.276;14.242;2024-02-16T01:12:49;23.65;;;10.88;;
39896;SDS011;25567;48.276;14.242;2024-02-16T01:15:18;27.02;;;11.48;;
39896;SDS011;25567;48.276;14.242;2024-02-16T01:17:45;25.33;;;12.50;;
39896;SDS011;25567;48.276;14.242;2024-02-16T01:20:11;31.70;;;13.23;;
39896;SDS011;25567;48.276;14.242;2024-02-16T01:22:39;28.80;;;13.32;;
39896;SDS011;25567;48.276;14.242;2024-02-16T01:25:07;26.20;;;11.80;;
39896;SDS011;25567;48.276;14.242;2024-02-16T01:27:34;28.30;;;12.95;;
39896;SDS011;25567;48.276;14.242;2024-02-16T01:30:02;31.20;;;13.93;;
39896;SDS011;25567;48.276;14.242;2024-02-16T01:32:29;29.35;;;12.98;;
39896;SDS011;25567;48.276;14.242;2024-02-16T01:34:56;30.25;;;13.40;;
39896;SDS011;25567;48.276;14.242;2024-02-16T01:37:24;26.50;;;13.30;;
39896;SDS011;25567;48.276;14.242;2024-02-16T01:39:51;34.90;;;14.60;;
39896;SDS011;25567;48.276;14.242;2024-02-16T01:42:18;33.15;;;16.20;;
39896;SDS011;25567;48.276;14.242;2024-02-16T01:44:45;38.15;;;16.38;;
39896;SDS011;25567;48.276;14.242;2024-02-16T01:47:12;38.10;;;17.50;;
39896;SDS011;25567;48.276;14.242;2024-02-16T01:49:39;44.25;;;16.85;;
39896;SDS011;25567;48.276;14.242;2024-02-16T01:52:06;39.63;;;17.92;;
39896;SDS011;25567;48.276;14.242;2024-02-16T01:54:33;39.80;;;17.98;;
39896;SDS011;25567;48.276;14.242;2024-02-16T01:57:00;43.80;;;18.70;;
39896;SDS011;25567;48.276;14.242;2024-02-16T01:59:27;46.05;;;18.27;;
39896;SDS011;25567;48.276;14.242;2024-02-16T02:01:54;48.75;;;19.73;;
39896;SDS011;25567;48.276;14.242;2024-02-16T02:04:21;47.50;;;19.55;;
39896;SDS011;25567;48.276;14.242;2024-02-16T02:06:47;45.40;;;19.50;;
39896;SDS011;25567;48.276;14.242;2024-02-16T02:09:14;44.42;;;19.88;;
39896;SDS011;25567;48.276;14.242;2024-02-16T02:11:41;44.25;;;19.70;;
39896;SDS011;25567;48.276;14.242;2024-02-16T02:14:07;48.08;;;20.02;;
39896;SDS011;25567;48.276;14.242;2024-02-16T02:16:34;49.78;;;21.60;;
39896;SDS011;25567;48.276;14.242;2024-02-16T02:19:16;53.35;;;22.83;;
39896;SDS011;25567;48.276;14.242;2024-02-16T02:21:43;48.55;;;21.88;;
39896;SDS011;25567;48.276;14.242;2024-02-16T02:24:09;45.92;;;20.80;;
39896;SDS011;25567;48.276;14.242;2024-02-16T02:26:37;55.30;;;20.95;;
39896;SDS011;25567;48.276;14.242;2024-02-16T02:29:04;50.80;;;22.63;;
39896;SDS011;25567;48.276;14.242;2024-02-16T02:31:31;52.45;;;22.48;;
39896;SDS011;25567;48.276;14.242;2024-02-16T02:33:58;57.17;;;23.05;;
39896;SDS011;25567;48.276;14.242;2024-02-16T02:36:25;46.85;;;22.05;;
39896;SDS011;25567;48.276;14.242;2024-02-16T02:38:51;63.28;;;24.17;;
39896;SDS011;25567;48.276;14.242;2024-02-16T02:41:18;50.47;;;23.60;;
39896;SDS011;25567;48.276;14.242;2024-02-16T02:43:46;56.13;;;23.48;;
39896;SDS011;25567;48.276;14.242;2024-02-16T02:46:16;59.95;;;24.58;;
39896;SDS011;25567;48.276;14.242;2024-02-16T02:48:43;51.20;;;23.25;;
39896;SDS011;25567;48.276;14.242;2024-02-16T02:51:16;53.80;;;23.23;;
39896;SDS011;25567;48.276;14.242;2024-02-16T02:53:42;51.30;;;23.27;;
39896;SDS011;25567;48.276;14.242;2024-02-16T02:56:09;53.30;;;22.60;;
39896;SDS011;25567;48.276;14.242;2024-02-16T02:58:36;53.17;;;22.35;;
39896;SDS011;25567;48.276;14.242;2024-02-16T03:01:05;43.63;;;19.45;;
39896;SDS011;25567;48.276;14.242;2024-02-16T03:03:33;50.28;;;19.75;;
39896;SDS011;25567;48.276;14.242;2024-02-16T03:06:00;55.50;;;21.48;;
39896;SDS011;25567;48.276;14.242;2024-02-16T03:08:27;47.50;;;19.38;;
39896;SDS011;25567;48.276;14.242;2024-02-16T03:10:54;51.17;;;20.05;;
39896;SDS011;25567;48.276;14.242;2024-02-16T03:13:20;44.83;;;19.15;;
39896;SDS011;25567;48.276;14.242;2024-02-16T03:15:47;47.22;;;19.92;;
39896;SDS011;25567;48.276;14.242;2024-02-16T03:18:14;38.47;;;17.90;;
39896;SDS011;25567;48.276;14.242;2024-02-16T03:20:41;41.42;;;17.95;;
39896;SDS011;25567;48.276;14.242;2024-02-16T03:23:12;46.33;;;19.13;;
39896;SDS011;25567;48.276;14.242;2024-02-16T03:25:39;44.67;;;19.65;;
39896;SDS011;25567;48.276;14.242;2024-02-16T03:28:08;43.50;;;18.85;;
39896;SDS011;25567;48.276;14.242;2024-02-16T03:30:35;44.95;;;19.90;;
39896;SDS011;25567;48.276;14.242;2024-02-16T03:33:02;54.20;;;21.02;;
39896;SDS011;25567;48.276;14.242;2024-02-16T03:35:28;54.05;;;20.48;;
39896;SDS011;25567;48.276;14.242;2024-02-16T03:37:55;51.45;;;21.95;;
39896;SDS011;25567;48.276;14.242;2024-02-16T03:40:22;51.60;;;21.33;;
39896;SDS011;25567;48.276;14.242;2024-02-16T03:42:49;55.58;;;22.95;;
39896;SDS011;25567;48.276;14.242;2024-02-16T03:45:16;54.80;;;23.40;;
39896;SDS011;25567;48.276;14.242;2024-02-16T03:47:43;57.13;;;24.92;;
39896;SDS011;25567;48.276;14.242;2024-02-16T03:50:10;56.08;;;25.05;;
39896;SDS011;25567;48.276;14.242;2024-02-16T03:52:37;62.22;;;25.50;;
39896;SDS011;25567;48.276;14.242;2024-02-16T03:55:04;56.13;;;24.15;;
39896;SDS011;25567;48.276;14.242;2024-02-16T03:57:32;64.68;;;25.33;;
39896;SDS011;25567;48.276;14.242;2024-02-16T03:59:58;68.03;;;26.35;;
39896;SDS011;25567;48.276;14.242;2024-02-16T04:02:25;62.78;;;24.95;;
39896;SDS011;25567;48.276;14.242;2024-02-16T04:04:52;60.05;;;25.52;;
39896;SDS011;25567;48.276;14.242;2024-02-16T04:07:19;61.70;;;24.85;;
39896;SDS011;25567;48.276;14.242;2024-02-16T04:09:46;61.22;;;25.15;;
39896;SDS011;25567;48.276;14.242;2024-02-16T04:12:12;60.63;;;25.23;;
39896;SDS011;25567;48.276;14.242;2024-02-16T04:14:39;60.17;;;25.80;;
39896;SDS011;25567;48.276;14.242;2024-02-16T04:17:06;54.60;;;23.33;;
39896;SDS011;25567;48.276;14.242;2024-02-16T04:19:32;58.65;;;24.90;;
39896;SDS011;25567;48.276;14.242;2024-02-16T04:21:59;56.45;;;23.15;;
39896;SDS011;25567;48.276;14.242;2024-02-16T04:24:26;47.15;;;20.65;;
39896;SDS011;25567;48.276;14.242;2024-02-16T04:26:53;50.08;;;21.45;;
39896;SDS011;25567;48.276;14.242;2024-02-16T04:29:20;53.63;;;21.95;;
39896;SDS011;25567;48.276;14.242;2024-02-16T04:31:46;54.10;;;21.98;;
39896;SDS011;25567;48.276;14.242;2024-02-16T04:34:13;54.75;;;21.65;;
39896;SDS011;25567;48.276;14.242;2024-02-16T04:36:40;53.03;;;19.92;;
39896;SDS011;25567;48.276;14.242;2024-02-16T04:39:07;50.92;;;20.77;;
39896;SDS011;25567;48.276;14.242;2024-02-16T04:41:36;50.65;;;21.35;;
39896;SDS011;25567;48.276;14.242;2024-02-16T04:44:03;47.35;;;19.60;;
39896;SDS011;25567;48.276;14.242;2024-02-16T04:46:29;54.55;;;22.33;;
39896;SDS011;25567;48.276;14.242;2024-02-16T04:48:56;52.22;;;22.05;;
39896;SDS011;25567;48.276;14.242;2024-02-16T04:51:23;57.40;;;23.17;;
39896;SDS011;25567;48.276;14.242;2024-02-16T04:53:50;55.58;;;21.30;;
39896;SDS011;25567;48.276;14.242;2024-02-16T04:56:16;55.15;;;21.52;;
39896;SDS011;25567;48.276;14.242;2024-02-16T04:58:43;54.22;;;22.95;;
39896;SDS011;25567;48.276;14.242;2024-02-16T05:01:10;58.40;;;22.00;;
39896;SDS011;25567;48.276;14.242;2024-02-16T05:03:36;56.33;;;22.73;;
39896;SDS011;25567;48.276;14.242;2024-02-16T05:06:03;62.08;;;22.70;;
39896;SDS011;25567;48.276;14.242;2024-02-16T05:08:30;55.20;;;23.45;;
39896;SDS011;25567;48.276;14.242;2024-02-16T05:10:57;55.90;;;23.98;;
39896;SDS011;25567;48.276;14.242;2024-02-16T05:13:24;57.75;;;24.35;;
39896;SDS011;25567;48.276;14.242;2024-02-16T05:15:52;63.40;;;25.25;;
39896;SDS011;25567;48.276;14.242;2024-02-16T05:18:21;64.97;;;26.55;;
39896;SDS011;25567;48.276;14.242;2024-02-16T05:20:48;72.10;;;25.70;;
39896;SDS011;25567;48.276;14.242;2024-02-16T05:23:15;71.45;;;27.40;;
39896;SDS011;25567;48.276;14.242;2024-02-16T05:25:42;78.32;;;29.25;;
39896;SDS011;25567;48.276;14.242;2024-02-16T05:28:09;74.50;;;28.65;;
39896;SDS011;25567;48.276;14.242;2024-02-16T05:30:35;76.50;;;29.42;;
39896;SDS011;25567;48.276;14.242;2024-02-16T05:33:02;82.55;;;30.88;;
39896;SDS011;25567;48.276;14.242;2024-02-16T05:35:29;78.70;;;30.45;;
39896;SDS011;25567;48.276;14.242;2024-02-16T05:38:00;88.00;;;33.20;;
39896;SDS011;25567;48.276;14.242;2024-02-16T05:40:33;92.15;;;32.40;;
39896;SDS011;25567;48.276;14.242;2024-02-16T05:43:11;94.65;;;33.40;;
39896;SDS011;25567;48.276;14.242;2024-02-16T05:45:38;103.88;;;36.15;;
39896;SDS011;25567;48.276;14.242;2024-02-16T05:48:08;100.32;;;36.17;;
39896;SDS011;25567;48.276;14.242;2024-02-16T05:50:37;93.32;;;36.42;;
39896;SDS011;25567;48.276;14.242;2024-02-16T05:53:04;109.30;;;37.28;;
39896;SDS011;25567;48.276;14.242;2024-02-16T05:55:30;112.88;;;38.10;;
39896;SDS011;25567;48.276;14.242;2024-02-16T05:57:57;101.45;;;37.00;;
39896;SDS011;25567;48.276;14.242;2024-02-16T06:00:23;111.80;;;37.88;;
39896;SDS011;25567;48.276;14.242;2024-02-16T06:02:50;96.10;;;36.25;;
39896;SDS011;25567;48.276;14.242;2024-02-16T06:05:17;101.75;;;35.88;;
39896;SDS011;25567;48.276;14.242;2024-02-16T06:07:46;97.95;;;37.20;;
39896;SDS011;25567;48.276;14.242;2024-02-16T06:10:13;105.65;;;37.75;;
39896;SDS011;25567;48.276;14.242;2024-02-16T06:12:40;104.03;;;36.30;;
39896;SDS011;25567;48.276;14.242;2024-02-16T06:15:07;104.05;;;37.13;;
39896;SDS011;25567;48.276;14.242;2024-02-16T06:17:34;101.45;;;36.38;;
39896;SDS011;25567;48.276;14.242;2024-02-16T06:20:00;135.45;;;38.08;;
39896;SDS011;25567;48.276;14.242;2024-02-16T06:22:28;108.93;;;37.63;;
39896;SDS011;25567;48.276;14.242;2024-02-16T06:24:54;116.90;;;36.30;;
39896;SDS011;25567;48.276;14.242;2024-02-16T06:27:21;98.50;;;34.50;;
39896;SDS011;25567;48.276;14.242;2024-02-16T06:29:48;123.03;;;37.53;;
39896;SDS011;25567;48.276;14.242;2024-02-16T06:32:15;99.10;;;36.22;;
39896;SDS011;25567;48.276;14.242;2024-02-16T06:34:43;99.72;;;34.05;;
39896;SDS011;25567;48.276;14.242;2024-02-16T06:37:12;99.35;;;35.00;;
39896;SDS011;25567;48.276;14.242;2024-02-16T06:39:39;97.82;;;33.35;;
39896;SDS011;25567;48.276;14.242;2024-02-16T06:42:06;92.75;;;34.53;;
39896;SDS011;25567;48.276;14.242;2024-02-16T06:44:32;98.72;;;34.60;;
39896;SDS011;25567;48.276;14.242;2024-02-16T06:46:59;100.75;;;35.60;;
39896;SDS011;25567;48.276;14.242;2024-02-16T06:49:26;101.65;;;36.70;;
39896;SDS011;25567;48.276;14.242;2024-02-16T06:51:53;101.97;;;35.05;;
39896;SDS011;25567;48.276;14.242;2024-02-16T06:54:20;110.32;;;35.45;;
39896;SDS011;25567;48.276;14.242;2024-02-16T06:56:47;103.63;;;35.95;;
39896;SDS011;25567;48.276;14.242;2024-02-16T06:59:14;107.75;;;35.45;;
39896;SDS011;25567;48.276;14.242;2024-02-16T07:01:41;103.53;;;36.03;;
39896;SDS011;25567;48.276;14.242;2024-02-16T07:04:07;101.38;;;36.55;;
39896;SDS011;25567;48.276;14.242;2024-02-16T07:06:35;97.07;;;35.70;;
39896;SDS011;25567;48.276;14.242;2024-02-16T07:09:02;96.10;;;37.05;;
39896;SDS011;25567;48.276;14.242;2024-02-16T07:11:29;104.00;;;35.63;;
39896;SDS011;25567;48.276;14.242;2024-02-16T07:13:56;115.00;;;36.85;;
39896;SDS011;25567;48.276;14.242;2024-02-16T07:16:22;98.63;;;35.15;;
39896;SDS011;25567;48.276;14.242;2024-02-16T07:18:49;109.05;;;35.97;;
39896;SDS011;25567;48.276;14.242;2024-02-16T07:21:16;101.88;;;35.50;;
39896;SDS011;25567;48.276;14.242;2024-02-16T07:23:45;107.45;;;35.60;;
39896;SDS011;25567;48.276;14.242;2024-02-16T07:26:11;105.47;;;36.33;;
39896;SDS011;25567;48.276;14.242;2024-02-16T07:28:39;111.60;;;36.50;;
39896;SDS011;25567;48.276;14.242;2024-02-16T07:31:06;106.43;;;35.47;;
39896;SDS011;25567;48.276;14.242;2024-02-16T07:33:32;110.35;;;37.08;;
39896;SDS011;25567;48.276;14.242;2024-02-16T07:35:59;107.82;;;37.25;;
39896;SDS011;25567;48.276;14.242;2024-02-16T07:38:26;109.00;;;37.08;;
39896;SDS011;25567;48.276;14.242;2024-02-16T07:40:54;111.15;;;37.75;;
39896;SDS011;25567;48.276;14.242;2024-02-16T07:43:20;116.32;;;39.17;;
39896;SDS011;25567;48.276;14.242;2024-02-16T07:45:50;106.18;;;34.85;;
39896;SDS011;25567;48.276;14.242;2024-02-16T07:48:20;105.28;;;35.78;;
39896;SDS011;25567;48.276;14.242;2024-02-16T07:50:48;114.57;;;36.20;;
39896;SDS011;25567;48.276;14.242;2024-02-16T07:53:17;106.22;;;37.55;;
39896;SDS011;25567;48.276;14.242;2024-02-16T07:55:43;108.32;;;37.35;;
39896;SDS011;25567;48.276;14.242;2024-02-16T07:58:10;120.45;;;38.97;;
39896;SDS011;25567;48.276;14.242;2024-02-16T08:00:36;125.20;;;39.33;;
39896;SDS011;25567;48.276;14.242;2024-02-16T08:03:03;119.43;;;39.60;;
39896;SDS011;25567;48.276;14.242;2024-02-16T08:05:30;121.72;;;38.75;;
39896;SDS011;25567;48.276;14.242;2024-02-16T08:07:57;122.53;;;39.42;;
39896;SDS011;25567;48.276;14.242;2024-02-16T08:10:24;141.30;;;42.88;;
39896;SDS011;25567;48.276;14.242;2024-02-16T08:12:51;150.10;;;41.42;;
39896;SDS011;25567;48.276;14.242;2024-02-16T08:15:19;133.43;;;41.05;;
39896;SDS011;25567;48.276;14.242;2024-02-16T08:17:50;148.82;;;42.22;;
39896;SDS011;25567;48.276;14.242;2024-02-16T08:20:17;138.27;;;42.15;;
39896;SDS011;25567;48.276;14.242;2024-02-16T08:22:44;150.00;;;43.92;;
39896;SDS011;25567;48.276;14.242;2024-02-16T08:25:11;160.95;;;46.25;;
39896;SDS011;25567;48.276;14.242;2024-02-16T08:27:37;159.43;;;47.58;;
39896;SDS011;25567;48.276;14.242;2024-02-16T08:30:05;161.20;;;47.72;;
39896;SDS011;25567;48.276;14.242;2024-02-16T08:32:32;142.65;;;44.58;;
39896;SDS011;25567;48.276;14.242;2024-02-16T08:34:59;153.63;;;45.95;;
39896;SDS011;25567;48.276;14.242;2024-02-16T08:37:26;157.63;;;47.22;;
39896;SDS011;25567;48.276;14.242;2024-02-16T08:39:52;154.90;;;45.65;;
39896;SDS011;25567;48.276;14.242;2024-02-16T08:42:19;175.20;;;49.05;;
39896;SDS011;25567;48.276;14.242;2024-02-16T08:44:47;166.13;;;47.72;;
39896;SDS011;25567;48.276;14.242;2024-02-16T08:47:15;165.98;;;46.83;;
39896;SDS011;25567;48.276;14.242;2024-02-16T08:49:41;161.57;;;47.38;;
39896;SDS011;25567;48.276;14.242;2024-02-16T08:52:09;162.38;;;47.85;;
39896;SDS011;25567;48.276;14.242;2024-02-16T08:54:35;158.82;;;45.42;;
39896;SDS011;25567;48.276;14.242;2024-02-16T08:57:03;169.65;;;45.95;;
39896;SDS011;25567;48.276;14.242;2024-02-16T08:59:30;158.35;;;46.55;;
39896;SDS011;25567;48.276;14.242;2024-02-16T09:01:57;159.93;;;46.60;;
39896;SDS011;25567;48.276;14.242;2024-02-16T09:04:25;166.63;;;45.83;;
39896;SDS011;25567;48.276;14.242;2024-02-16T09:06:51;158.93;;;46.03;;
39896;SDS011;25567;48.276;14.242;2024-02-16T09:09:18;163.55;;;46.03;;
39896;SDS011;25567;48.276;14.242;2024-02-16T09:11:45;157.68;;;47.38;;
39896;SDS011;25567;48.276;14.242;2024-02-16T09:14:11;161.43;;;44.47;;
39896;SDS011;25567;48.276;14.242;2024-02-16T09:16:38;153.90;;;45.25;;
39896;SDS011;25567;48.276;14.242;2024-02-16T09:19:05;155.45;;;45.00;;
39896;SDS011;25567;48.276;14.242;2024-02-16T09:21:32;158.27;;;45.65;;
39896;SDS011;25567;48.276;14.242;2024-02-16T09:23:58;146.35;;;42.72;;
39896;SDS011;25567;48.276;14.242;2024-02-16T09:26:28;144.27;;;42.35;;
39896;SDS011;25567;48.276;14.242;2024-02-16T09:29:00;157.63;;;44.35;;
39896;SDS011;25567;48.276;14.242;2024-02-16T09:31:26;146.30;;;44.45;;
39896;SDS011;25567;48.276;14.242;2024-02-16T09:33:53;129.32;;;42.80;;
39896;SDS011;25567;48.276;14.242;2024-02-16T09:36:20;147.05;;;43.58;;
39896;SDS011;25567;48.276;14.242;2024-02-16T09:38:47;130.07;;;39.90;;
39896;SDS011;25567;48.276;14.242;2024-02-16T09:41:14;135.80;;;40.70;;
39896;SDS011;25567;48.276;14.242;2024-02-16T09:43:42;126.68;;;39.13;;
39896;SDS011;25567;48.276;14.242;2024-02-16T09:46:09;128.13;;;40.17;;
39896;SDS011;25567;48.276;14.242;2024-02-16T09:48:36;128.82;;;41.58;;
39896;SDS011;25567;48.276;14.242;2024-02-16T09:51:06;135.02;;;41.15;;
39896;SDS011;25567;48.276;14.242;2024-02-16T09:53:32;135.77;;;41.42;;
39896;SDS011;25567;48.276;14.242;2024-02-16T09:55:59;129.20;;;41.30;;
39896;SDS011;25567;48.276;14.242;2024-02-16T09:58:26;116.70;;;38.83;;
39896;SDS011;25567;48.276;14.242;2024-02-16T10:00:52;120.50;;;41.05;;
39896;SDS011;25567;48.276;14.242;2024-02-16T10:05:49;118.35;;;39.28;;
39896;SDS011;25567;48.276;14.242;2024-02-16T10:08:16;108.55;;;37.55;;
39896;SDS011;25567;48.276;14.242;2024-02-16T10:10:43;107.68;;;37.58;;
39896;SDS011;25567;48.276;14.242;2024-02-16T10:13:10;110.65;;;37.67;;
39896;SDS011;25567;48.276;14.242;2024-02-16T10:15:38;95.15;;;36.38;;
39896;SDS011;25567;48.276;14.242;2024-02-16T10:18:05;92.63;;;34.33;;
39896;SDS011;25567;48.276;14.242;2024-02-16T10:20:33;88.88;;;32.97;;
39896;SDS011;25567;48.276;14.242;2024-02-16T10:25:29;92.65;;;35.00;;
39896;SDS011;25567;48.276;14.242;2024-02-16T10:27:58;94.20;;;35.90;;
39896;SDS011;25567;48.276;14.242;2024-02-16T10:30:29;82.15;;;32.15;;
39896;SDS011;25567;48.276;14.242;2024-02-16T10:32:56;77.60;;;31.17;;
39896;SDS011;25567;48.276;14.242;2024-02-16T10:35:23;73.57;;;30.23;;
39896;SDS011;25567;48.276;14.242;2024-02-16T10:37:51;78.07;;;30.70;;
39896;SDS011;25567;48.276;14.242;2024-02-16T10:40:20;73.97;;;28.15;;
39896;SDS011;25567;48.276;14.242;2024-02-16T10:42:51;65.65;;;27.90;;
39896;SDS011;25567;48.276;14.242;2024-02-16T10:45:18;67.20;;;26.65;;
39896;SDS011;25567;48.276;14.242;2024-02-16T10:47:46;59.88;;;27.75;;
39896;SDS011;25567;48.276;14.242;2024-02-16T10:50:12;67.00;;;28.23;;
39896;SDS011;25567;48.276;14.242;2024-02-16T10:52:41;63.45;;;26.88;;
39896;SDS011;25567;48.276;14.242;2024-02-16T10:55:09;59.90;;;26.10;;
39896;SDS011;25567;48.276;14.242;2024-02-16T10:57:36;62.67;;;28.58;;
39896;SDS011;25567;48.276;14.242;2024-02-16T11:00:07;53.55;;;25.52;;
39896;SDS011;25567;48.276;14.242;2024-02-16T11:02:50;57.92;;;26.40;;
39896;SDS011;25567;48.276;14.242;2024-02-16T11:05:18;58.55;;;25.92;;
39896;SDS011;25567;48.276;14.242;2024-02-16T11:07:44;59.13;;;26.63;;
39896;SDS011;25567;48.276;14.242;2024-02-16T11:10:12;56.67;;;26.48;;
39896;SDS011;25567;48.276;14.242;2024-02-16T11:12:38;51.28;;;26.17;;
39896;SDS011;25567;48.276;14.242;2024-02-16T11:15:12;63.72;;;26.35;;
39896;SDS011;25567;48.276;14.242;2024-02-16T11:17:39;56.42;;;25.58;;
39896;SDS011;25567;48.276;14.242;2024-02-16T11:20:06;58.67;;;25.80;;
39896;SDS011;25567;48.276;14.242;2024-02-16T11:22:33;65.28;;;25.42;;
39896;SDS011;25567;48.276;14.242;2024-02-16T11:25:04;59.30;;;26.80;;
39896;SDS011;25567;48.276;14.242;2024-02-16T11:27:31;50.15;;;24.48;;
39896;SDS011;25567;48.276;14.242;2024-02-16T11:29:58;59.20;;;25.70;;
39896;SDS011;25567;48.276;14.242;2024-02-16T11:32:26;57.33;;;25.65;;
39896;SDS011;25567;48.276;14.242;2024-02-16T11:34:53;54.53;;;26.20;;
39896;SDS011;25567;48.276;14.242;2024-02-16T11:37:20;49.55;;;23.70;;
39896;SDS011;25567;48.276;14.242;2024-02-16T11:39:46;54.60;;;25.95;;
39896;SDS011;25567;48.276;14.242;2024-02-16T11:42:18;51.58;;;24.55;;
39896;SDS011;25567;48.276;14.242;2024-02-16T11:44:52;55.13;;;25.05;;
39896;SDS011;25567;48.276;14.242;2024-02-16T11:47:21;55.67;;;25.20;;
39896;SDS011;25567;48.276;14.242;2024-02-16T11:50:03;54.53;;;26.73;;
39896;SDS011;25567;48.276;14.242;2024-02-16T11:52:31;52.63;;;25.45;;
39896;SDS011;25567;48.276;14.242;2024-02-16T11:54:58;56.63;;;25.70;;
39896;SDS011;25567;48.276;14.242;2024-02-16T11:57:28;60.33;;;24.35;;
39896;SDS011;25567;48.276;14.242;2024-02-16T11:59:54;51.38;;;24.55;;
39896;SDS011;25567;48.276;14.242;2024-02-16T12:02:23;55.78;;;25.83;;
39896;SDS011;25567;48.276;14.242;2024-02-16T12:05:00;51.20;;;24.02;;
39896;SDS011;25567;48.276;14.242;2024-02-16T12:07:29;52.90;;;24.50;;
39896;SDS011;25567;48.276;14.242;2024-02-16T12:10:03;55.95;;;25.23;;
39896;SDS011;25567;48.276;14.242;2024-02-16T12:12:32;56.70;;;26.70;;
39896;SDS011;25567;48.276;14.242;2024-02-16T12:14:59;54.25;;;25.02;;
39896;SDS011;25567;48.276;14.242;2024-02-16T12:17:26;60.38;;;27.02;;
39896;SDS011;25567;48.276;14.242;2024-02-16T12:19:53;53.13;;;24.67;;
39896;SDS011;25567;48.276;14.242;2024-02-16T12:22:20;54.05;;;25.85;;
39896;SDS011;25567;48.276;14.242;2024-02-16T12:24:50;54.40;;;25.65;;
39896;SDS011;25567;48.276;14.242;2024-02-16T12:27:17;59.45;;;26.25;;
39896;SDS011;25567;48.276;14.242;2024-02-16T12:29:44;62.38;;;25.90;;
39896;SDS011;25567;48.276;14.242;2024-02-16T12:32:11;56.30;;;24.95;;
39896;SDS011;25567;48.276;14.242;2024-02-16T12:34:37;59.42;;;24.92;;
39896;SDS011;25567;48.276;14.242;2024-02-16T12:37:07;51.97;;;25.02;;
39896;SDS011;25567;48.276;14.242;2024-02-16T12:39:34;55.40;;;23.15;;
39896;SDS011;25567;48.276;14.242;2024-02-16T12:42:01;50.55;;;23.08;;
39896;SDS011;25567;48.276;14.242;2024-02-16T12:44:28;56.03;;;25.23;;
39896;SDS011;25567;48.276;14.242;2024-02-16T12:46:54;52.03;;;24.42;;
39896;SDS011;25567;48.276;14.242;2024-02-16T12:49:21;51.58;;;23.77;;
39896;SDS011;25567;48.276;14.242;2024-02-16T12:51:49;50.25;;;23.67;;
39896;SDS011;25567;48.276;14.242;2024-02-16T12:54:16;49.75;;;24.52;;
39896;SDS011;25567;48.276;14.242;2024-02-16T12:56:45;55.17;;;24.42;;
39896;SDS011;25567;48.276;14.242;2024-02-16T12:59:12;58.13;;;24.60;;
39896;SDS011;25567;48.276;14.242;2024-02-16T13:01:39;58.70;;;25.23;;
39896;SDS011;25567;48.276;14.242;2024-02-16T13:04:06;56.63;;;25.65;;
39896;SDS011;25567;48.276;14.242;2024-02-16T13:06:33;50.85;;;25.08;;
39896;SDS011;25567;48.276;14.242;2024-02-16T13:09:00;52.53;;;24.55;;
39896;SDS011;25567;48.276;14.242;2024-02-16T13:11:28;50.05;;;24.00;;
39896;SDS011;25567;48.276;14.242;2024-02-16T13:13:55;56.70;;;26.00;;
39896;SDS011;25567;48.276;14.242;2024-02-16T13:16:22;53.72;;;24.75;;
39896;SDS011;25567;48.276;14.242;2024-02-16T13:18:49;47.45;;;24.83;;
39896;SDS011;25567;48.276;14.242;2024-02-16T13:21:16;47.90;;;24.73;;
39896;SDS011;25567;48.276;14.242;2024-02-16T13:23:42;49.75;;;23.17;;
39896;SDS011;25567;48.276;14.242;2024-02-16T13:26:09;49.85;;;23.83;;
39896;SDS011;25567;48.276;14.242;2024-02-16T13:28:36;49.75;;;23.92;;
39896;SDS011;25567;48.276;14.242;2024-02-16T13:31:02;51.95;;;24.33;;
39896;SDS011;25567;48.276;14.242;2024-02-16T13:33:29;51.92;;;23.55;;
39896;SDS011;25567;48.276;14.242;2024-02-16T13:35:55;49.45;;;24.40;;
39896;SDS011;25567;48.276;14.242;2024-02-16T13:38:22;48.53;;;23.13;;
39896;SDS011;25567;48.276;14.242;2024-02-16T13:40:49;51.40;;;25.45;;
39896;SDS011;25567;48.276;14.242;2024-02-16T13:43:16;50.00;;;23.48;;
39896;SDS011;25567;48.276;14.242;2024-02-16T13:45:49;52.63;;;22.67;;
39896;SDS011;25567;48.276;14.242;2024-02-16T13:48:19;48.15;;;22.80;;
39896;SDS011;25567;48.276;14.242;2024-02-16T13:50:47;42.25;;;21.85;;
39896;SDS011;25567;48.276;14.242;2024-02-16T13:53:14;53.10;;;23.25;;
39896;SDS011;25567;48.276;14.242;2024-02-16T13:55:46;57.15;;;22.63;;
39896;SDS011;25567;48.276;14.242;2024-02-16T13:58:13;45.22;;;20.92;;
39896;SDS011;25567;48.276;14.242;2024-02-16T14:00:39;47.85;;;22.67;;
39896;SDS011;25567;48.276;14.242;2024-02-16T14:03:07;45.38;;;22.48;;
39896;SDS011;25567;48.276;14.242;2024-02-16T14:05:38;47.58;;;22.20;;
39896;SDS011;25567;48.276;14.242;2024-02-16T14:08:05;47.22;;;21.90;;
39896;SDS011;25567;48.276;14.242;2024-02-16T14:10:35;46.40;;;22.52;;
39896;SDS011;25567;48.276;14.242;2024-02-16T14:13:01;55.38;;;23.10;;